Time;durP1;ratioP1;P1;durP2;ratioP2;P2;SDS_P1;SDS_P2;PMS_P1;PMS_P2;Temp;Humidity;BMP_temperature;BMP_pressure;BME280_temperature;BME280_humidity;BME280_pressure;Samples;Min_cycle;Max_cycle;Signal;HPM_P1;HPM_P2
2023/09/09 00:00:32;;;;;;;8.38;7.32;;;20.40;99.90;;;;;;4974731;28;20030;-55
2023/09/09 00:02:57;;;;;;;9.48;7.50;;;20.40;99.90;;;;;;4974679;28;20033;-55
2023/09/09 00:05:23;;;;;;;7.60;6.78;;;20.30;99.90;;;;;;4974255;28;20069;-56
2023/09/09 00:07:48;;;;;;;12.45;8.10;;;20.30;99.90;;;;;;4974760;28;20427;-50
2023/09/09 00:10:14;;;;;;;10.68;7.57;;;20.30;99.90;;;;;;4973445;28;20027;-51
2023/09/09 00:12:39;;;;;;;10.90;7.97;;;20.20;99.90;;;;;;4973370;28;20077;-56
2023/09/09 00:15:05;;;;;;;17.63;6.72;;;20.20;99.90;;;;;;4972980;28;20033;-53
2023/09/09 00:17:31;;;;;;;9.65;7.45;;;20.20;99.90;;;;;;4974355;28;20031;-53
2023/09/09 00:19:57;;;;;;;12.20;6.95;;;20.10;99.90;;;;;;4974628;28;20042;-52
2023/09/09 00:22:22;;;;;;;14.27;7.72;;;20.00;99.90;;;;;;4973798;28;20531;-53
2023/09/09 00:24:48;;;;;;;7.72;6.55;;;19.90;99.90;;;;;;4973985;28;20038;-49
2023/09/09 00:27:13;;;;;;;14.32;8.43;;;19.90;99.90;;;;;;4974310;28;20035;-50
2023/09/09 00:29:39;;;;;;;12.43;7.53;;;19.70;99.90;;;;;;4974056;28;20542;-49
2023/09/09 00:32:04;;;;;;;8.75;7.05;;;19.50;99.90;;;;;;4974163;28;20034;-53
2023/09/09 00:34:30;;;;;;;12.18;8.35;;;19.40;99.90;;;;;;4971432;28;20478;-52
2023/09/09 00:36:57;;;;;;;7.85;7.00;;;19.40;99.90;;;;;;4971637;28;20043;-52
2023/09/09 00:39:22;;;;;;;12.90;7.78;;;19.40;99.90;;;;;;4973694;28;20508;-51
2023/09/09 00:41:48;;;;;;;10.45;8.10;;;19.40;99.90;;;;;;4973523;28;20033;-50
2023/09/09 00:44:13;;;;;;;11.65;7.60;;;19.40;99.90;;;;;;4971065;28;20027;-50
2023/09/09 00:46:39;;;;;;;9.02;8.07;;;19.40;99.90;;;;;;4974404;28;20031;-53
2023/09/09 00:49:04;;;;;;;8.73;7.93;;;19.40;99.90;;;;;;4973978;28;20110;-49
2023/09/09 00:51:31;;;;;;;12.10;8.43;;;19.40;99.90;;;;;;4973829;28;20031;-52
2023/09/09 00:53:56;;;;;;;8.55;7.60;;;19.40;99.90;;;;;;4972027;28;20035;-51
2023/09/09 00:56:22;;;;;;;12.65;8.43;;;19.40;99.90;;;;;;4973690;28;20076;-52
2023/09/09 00:58:47;;;;;;;9.30;7.47;;;19.20;99.90;;;;;;4973701;28;20037;-51
2023/09/09 01:01:13;;;;;;;13.23;9.30;;;19.20;99.90;;;;;;4973688;28;20031;-50
2023/09/09 01:03:38;;;;;;;13.43;8.00;;;19.20;99.90;;;;;;4973361;28;20027;-50
2023/09/09 01:06:05;;;;;;;9.60;8.70;;;19.10;99.90;;;;;;4973421;28;20035;-50
2023/09/09 01:08:31;;;;;;;10.07;8.00;;;19.10;99.90;;;;;;4973433;28;20169;-54
2023/09/09 01:10:57;;;;;;;10.52;8.10;;;19.10;99.90;;;;;;4973481;28;20096;-52
2023/09/09 01:13:23;;;;;;;11.13;8.80;;;19.00;99.90;;;;;;4973284;28;20034;-51
2023/09/09 01:15:49;;;;;;;10.13;8.27;;;18.90;99.90;;;;;;4973242;28;20101;-51
2023/09/09 01:18:17;;;;;;;9.15;8.20;;;18.90;99.90;;;;;;4973289;28;20582;-52
2023/09/09 01:20:49;;;;;;;11.90;8.30;;;18.90;99.90;;;;;;4973250;28;20023;-50
2023/09/09 01:23:14;;;;;;;14.90;9.65;;;18.80;99.90;;;;;;4973436;28;20110;-53
2023/09/09 01:25:40;;;;;;;12.90;9.02;;;18.80;99.90;;;;;;4971719;28;20101;-49
2023/09/09 01:28:05;;;;;;;12.00;9.07;;;18.70;99.90;;;;;;4971796;28;20499;-53
2023/09/09 01:30:31;;;;;;;10.93;9.20;;;18.70;99.90;;;;;;4973192;28;20030;-52
2023/09/09 01:32:57;;;;;;;11.05;8.85;;;18.60;99.90;;;;;;4972331;28;20030;-52
2023/09/09 01:35:22;;;;;;;10.00;8.50;;;18.60;99.90;;;;;;4971518;28;20019;-49
2023/09/09 01:37:49;;;;;;;9.38;8.38;;;18.50;99.90;;;;;;4973180;28;20054;-49
2023/09/09 01:40:15;;;;;;;12.02;8.20;;;18.50;99.90;;;;;;4973146;28;20414;-51
2023/09/09 01:42:41;;;;;;;10.75;8.93;;;18.50;99.90;;;;;;4972841;28;20066;-53
2023/09/09 01:45:07;;;;;;;18.33;9.85;;;18.60;99.90;;;;;;4972610;28;20567;-50
2023/09/09 01:47:32;;;;;;;10.95;9.32;;;18.60;99.90;;;;;;4972971;28;20027;-53
2023/09/09 01:49:58;;;;;;;11.15;9.13;;;18.60;99.90;;;;;;4973177;28;20111;-49
2023/09/09 01:52:23;;;;;;;10.40;8.88;;;18.60;99.90;;;;;;4972995;28;20031;-50
2023/09/09 01:54:49;;;;;;;11.60;8.13;;;18.50;99.90;;;;;;4972526;28;20026;-52
2023/09/09 01:57:19;;;;;;;12.30;8.98;;;18.50;99.90;;;;;;4972844;28;20041;-53
2023/09/09 01:59:44;;;;;;;12.43;9.23;;;18.50;99.90;;;;;;4972758;28;20491;-51
2023/09/09 02:02:10;;;;;;;13.05;9.70;;;18.40;99.90;;;;;;4972743;28;20099;-54
2023/09/09 02:04:35;;;;;;;16.70;8.40;;;18.40;99.90;;;;;;4972572;28;20025;-50
2023/09/09 02:07:01;;;;;;;10.60;7.80;;;18.40;99.90;;;;;;4972812;28;20486;-54
2023/09/09 02:09:26;;;;;;;11.13;8.95;;;18.40;99.90;;;;;;4971418;28;20027;-51
2023/09/09 02:11:52;;;;;;;13.13;9.00;;;18.30;99.90;;;;;;4972712;28;20027;-53
2023/09/09 02:14:17;;;;;;;8.95;8.05;;;18.30;99.90;;;;;;4972203;28;20483;-53
2023/09/09 02:16:43;;;;;;;10.18;8.57;;;18.20;99.90;;;;;;4972554;28;20506;-53
2023/09/09 02:19:08;;;;;;;12.68;8.52;;;18.20;99.90;;;;;;4972606;28;20109;-53
2023/09/09 02:21:34;;;;;;;12.77;8.52;;;18.10;99.90;;;;;;4972675;28;20054;-50
2023/09/09 02:24:00;;;;;;;9.45;8.13;;;18.10;99.90;;;;;;4972280;28;20031;-51
2023/09/09 02:26:26;;;;;;;10.30;8.60;;;18.00;99.90;;;;;;4972590;28;20034;-50
2023/09/09 02:28:51;;;;;;;12.73;8.80;;;18.00;99.90;;;;;;4972566;28;20047;-53
2023/09/09 02:31:17;;;;;;;16.75;9.18;;;18.00;99.90;;;;;;4972464;28;20217;-50
2023/09/09 02:33:42;;;;;;;8.80;7.90;;;18.10;99.90;;;;;;4972014;28;20039;-50
2023/09/09 02:36:08;;;;;;;9.70;8.05;;;18.10;99.90;;;;;;4972525;28;20176;-55
2023/09/09 02:38:34;;;;;;;14.40;8.38;;;18.10;99.90;;;;;;4971102;28;20027;-54
2023/09/09 02:40:59;;;;;;;9.20;8.27;;;18.10;99.90;;;;;;4972473;28;20018;-48
2023/09/09 02:43:25;;;;;;;9.85;8.02;;;18.10;99.90;;;;;;4971940;28;20109;-52
2023/09/09 02:45:51;;;;;;;15.95;7.90;;;18.20;99.90;;;;;;4973467;28;20090;-51
2023/09/09 02:48:16;;;;;;;10.02;8.50;;;18.20;99.90;;;;;;4976163;28;20034;-54
2023/09/09 02:50:41;;;;;;;12.05;8.27;;;18.10;99.90;;;;;;4976091;28;20065;-49
2023/09/09 02:53:07;;;;;;;8.98;8.07;;;18.10;99.90;;;;;;4975942;28;20031;-53
2023/09/09 02:55:32;;;;;;;9.95;8.40;;;18.00;99.90;;;;;;4975493;28;20031;-54
2023/09/09 02:57:58;;;;;;;12.07;8.45;;;18.00;99.90;;;;;;4974539;28;20023;-50
2023/09/09 03:00:23;;;;;;;11.63;7.50;;;17.90;99.90;;;;;;4975879;28;20025;-49
2023/09/09 03:02:50;;;;;;;8.82;7.93;;;18.00;99.90;;;;;;4975835;28;20114;-51
2023/09/09 03:05:15;;;;;;;12.32;8.80;;;17.90;99.90;;;;;;4975633;28;20030;-52
2023/09/09 03:07:44;;;;;;;10.27;9.18;;;17.90;99.90;;;;;;4976165;28;20517;-53
2023/09/09 03:10:09;;;;;;;10.40;8.68;;;17.90;99.90;;;;;;4975964;28;20394;-51
2023/09/09 03:12:35;;;;;;;14.07;8.73;;;17.90;99.90;;;;;;4975803;28;20034;-54
2023/09/09 03:15:05;;;;;;;9.02;8.10;;;17.80;99.90;;;;;;4975730;28;20045;-54
2023/09/09 03:17:31;;;;;;;11.40;8.05;;;17.70;99.90;;;;;;4975641;28;20069;-49
2023/09/09 03:19:56;;;;;;;11.57;7.85;;;17.70;99.90;;;;;;4974325;28;20026;-52
2023/09/09 03:22:22;;;;;;;13.82;8.75;;;17.70;99.90;;;;;;4975521;28;20027;-52
2023/09/09 03:24:47;;;;;;;12.25;7.82;;;17.60;99.90;;;;;;4975027;28;20066;-53
2023/09/09 03:27:13;;;;;;;8.77;7.93;;;17.50;99.90;;;;;;4974177;28;20058;-55
2023/09/09 03:29:38;;;;;;;9.32;8.32;;;17.50;99.90;;;;;;4975314;28;20078;-49
2023/09/09 03:32:04;;;;;;;9.85;8.55;;;17.50;99.90;;;;;;4975370;28;20054;-54
2023/09/09 03:34:30;;;;;;;14.68;7.65;;;17.50;99.90;;;;;;4974865;28;20050;-52
2023/09/09 03:36:56;;;;;;;8.60;7.80;;;17.40;99.90;;;;;;4975215;28;20483;-53
2023/09/09 03:39:22;;;;;;;8.55;7.68;;;17.50;99.90;;;;;;4975369;28;20438;-53
2023/09/09 03:41:48;;;;;;;8.60;7.80;;;17.50;99.90;;;;;;4975264;28;20517;-50
2023/09/09 03:44:13;;;;;;;11.85;7.47;;;17.50;99.90;;;;;;4973222;28;20058;-50
2023/09/09 03:46:39;;;;;;;9.02;7.28;;;17.50;99.90;;;;;;4975434;28;20058;-52
2023/09/09 03:49:04;;;;;;;13.63;8.55;;;17.50;99.90;;;;;;4974998;28;20035;-50
2023/09/09 03:51:30;;;;;;;8.90;7.47;;;17.50;99.90;;;;;;4974868;28;20412;-54
2023/09/09 03:53:56;;;;;;;8.90;8.00;;;17.40;99.90;;;;;;4974800;28;20564;-53
2023/09/09 03:56:21;;;;;;;8.90;8.10;;;17.30;99.90;;;;;;4973890;28;20019;-51
2023/09/09 03:58:47;;;;;;;9.30;7.88;;;17.30;99.90;;;;;;4974817;28;20405;-51
2023/09/09 04:01:12;;;;;;;13.77;8.05;;;17.30;99.90;;;;;;4974796;28;20027;-51
2023/09/09 04:03:39;;;;;;;10.05;8.13;;;17.20;99.90;;;;;;4974332;28;20453;-50
2023/09/09 04:06:08;;;;;;;10.25;8.50;;;17.20;99.90;;;;;;4974527;28;20109;-53
2023/09/09 04:08:35;;;;;;;17.17;8.35;;;17.00;99.90;;;;;;4973595;28;20081;-51
2023/09/09 04:11:01;;;;;;;9.88;8.65;;;17.00;99.90;;;;;;4974611;28;20023;-51
2023/09/09 04:13:27;;;;;;;12.15;8.73;;;17.00;99.90;;;;;;4974277;28;20027;-52
2023/09/09 04:15:53;;;;;;;11.38;8.48;;;16.90;99.90;;;;;;4974254;28;20402;-49
2023/09/09 04:18:19;;;;;;;13.75;9.38;;;16.90;99.90;;;;;;4974439;28;20594;-50
2023/09/09 04:20:45;;;;;;;11.15;10.00;;;16.90;99.90;;;;;;4974433;28;20027;-47
2023/09/09 04:23:10;;;;;;;10.10;8.48;;;16.90;99.90;;;;;;4973026;28;20022;-49
2023/09/09 04:25:36;;;;;;;11.18;8.88;;;16.80;99.90;;;;;;4973821;28;20026;-51
2023/09/09 04:28:02;;;;;;;10.13;8.77;;;16.80;99.90;;;;;;4974415;28;20590;-51
2023/09/09 04:30:27;;;;;;;10.00;8.93;;;16.80;99.90;;;;;;4974138;28;20031;-52
2023/09/09 04:32:54;;;;;;;10.00;9.00;;;16.80;99.90;;;;;;4974640;28;20493;-49
2023/09/09 04:35:19;;;;;;;14.45;8.82;;;16.70;99.90;;;;;;4974042;28;20025;-52
2023/09/09 04:37:45;;;;;;;9.07;8.20;;;16.70;99.90;;;;;;4972745;28;20018;-53
2023/09/09 04:40:11;;;;;;;12.80;8.50;;;16.70;99.90;;;;;;4974089;28;20482;-50
2023/09/09 04:42:36;;;;;;;9.43;8.43;;;16.70;99.90;;;;;;4972501;28;20038;-53
2023/09/09 04:45:03;;;;;;;11.02;9.15;;;16.70;99.90;;;;;;4973519;28;20043;-53
2023/09/09 04:47:29;;;;;;;10.15;8.35;;;16.70;99.90;;;;;;4973795;28;20023;-52
2023/09/09 04:49:57;;;;;;;10.95;8.80;;;16.80;99.90;;;;;;4973953;28;20122;-51
2023/09/09 04:52:23;;;;;;;8.88;7.25;;;16.80;99.90;;;;;;4973796;28;20106;-50
2023/09/09 04:54:49;;;;;;;10.45;8.40;;;16.90;99.90;;;;;;4973273;28;20530;-50
2023/09/09 04:57:15;;;;;;;10.20;8.15;;;16.90;99.90;;;;;;4972458;28;20023;-52
2023/09/09 04:59:41;;;;;;;9.93;7.70;;;17.00;99.90;;;;;;4973747;28;20022;-51
2023/09/09 05:02:07;;;;;;;13.82;9.23;;;16.90;99.90;;;;;;4973565;28;20035;-52
2023/09/09 05:04:32;;;;;;;13.05;9.30;;;16.90;99.90;;;;;;4973248;28;20501;-51
2023/09/09 05:06:58;;;;;;;12.60;8.90;;;16.90;99.90;;;;;;4973822;28;20022;-52
2023/09/09 05:09:23;;;;;;;12.65;8.85;;;16.80;99.90;;;;;;4972053;28;20051;-54
2023/09/09 05:11:49;;;;;;;10.00;8.10;;;16.70;99.90;;;;;;4973399;28;20060;-51
2023/09/09 05:14:14;;;;;;;11.82;8.73;;;16.70;99.90;;;;;;4973002;28;20081;-50
2023/09/09 05:16:40;;;;;;;9.10;7.28;;;16.70;99.90;;;;;;4973309;28;20105;-55
2023/09/09 05:19:05;;;;;;;12.25;8.60;;;16.70;99.90;;;;;;4973520;28;20381;-52
2023/09/09 05:21:31;;;;;;;11.20;8.75;;;16.70;99.90;;;;;;4973313;28;20018;-53
2023/09/09 05:23:56;;;;;;;10.05;8.63;;;16.70;99.90;;;;;;4972996;28;20094;-51
2023/09/09 05:26:22;;;;;;;10.77;8.18;;;16.70;99.90;;;;;;4973363;28;20106;-53
2023/09/09 05:28:47;;;;;;;11.70;8.23;;;16.80;99.90;;;;;;4973448;28;20487;-51
2023/09/09 05:31:13;;;;;;;11.77;9.05;;;16.90;99.90;;;;;;4973308;28;20046;-50
2023/09/09 05:33:39;;;;;;;10.82;7.82;;;16.90;99.90;;;;;;4972892;28;20095;-53
2023/09/09 05:36:05;;;;;;;8.48;7.38;;;16.90;99.90;;;;;;4973078;28;20490;-53
2023/09/09 05:38:30;;;;;;;11.88;7.93;;;17.00;99.90;;;;;;4973025;28;20066;-51
2023/09/09 05:40:56;;;;;;;8.85;7.93;;;17.10;99.90;;;;;;4973065;28;20031;-52
2023/09/09 05:43:21;;;;;;;8.85;7.72;;;17.10;99.90;;;;;;4972588;28;20027;-51
2023/09/09 05:45:47;;;;;;;8.98;7.97;;;17.10;99.90;;;;;;4993616;23;20473;-50
2023/09/09 05:48:12;;;;;;;9.00;7.88;;;17.20;99.90;;;;;;4972937;28;20030;-48
2023/09/09 05:50:38;;;;;;;9.30;8.30;;;17.30;99.90;;;;;;4972891;28;20095;-50
2023/09/09 05:53:03;;;;;;;14.35;8.45;;;17.30;99.90;;;;;;4971482;28;20026;-48
2023/09/09 05:55:29;;;;;;;9.13;8.23;;;17.40;99.90;;;;;;4972836;28;20019;-46
2023/09/09 05:57:55;;;;;;;10.48;8.07;;;17.40;99.90;;;;;;4972872;28;20062;-50
2023/09/09 06:00:21;;;;;;;11.23;7.47;;;17.50;99.90;;;;;;4972915;28;20054;-46
2023/09/09 06:02:46;;;;;;;9.85;7.90;;;17.60;99.90;;;;;;4972847;28;20076;-46
2023/09/09 06:05:13;;;;;;;11.43;8.07;;;17.70;99.90;;;;;;4971146;28;20375;-46
2023/09/09 06:07:39;;;;;;;13.90;8.15;;;17.70;99.90;;;;;;4972840;28;20023;-46
2023/09/09 06:10:05;;;;;;;14.65;9.05;;;17.70;99.90;;;;;;4972721;28;20058;-47
2023/09/09 06:12:31;;;;;;;9.70;7.90;;;17.80;99.90;;;;;;4972714;28;20074;-46
2023/09/09 06:14:56;;;;;;;10.45;8.73;;;17.80;99.90;;;;;;4972261;28;20529;-48
2023/09/09 06:17:22;;;;;;;10.30;8.30;;;17.90;99.90;;;;;;4972590;28;20026;-49
2023/09/09 06:19:47;;;;;;;10.95;8.75;;;17.90;99.90;;;;;;4972368;28;20446;-47
2023/09/09 06:22:13;;;;;;;10.77;7.50;;;18.00;99.90;;;;;;4976509;28;20030;-46
2023/09/09 06:24:38;;;;;;;10.57;8.40;;;18.10;99.90;;;;;;4976032;28;20509;-48
2023/09/09 06:27:04;;;;;;;9.35;8.18;;;18.10;99.90;;;;;;4975202;28;20023;-47
2023/09/09 06:29:30;;;;;;;9.48;7.90;;;18.20;99.90;;;;;;4976593;28;20027;-47
2023/09/09 06:31:55;;;;;;;14.55;7.97;;;18.30;99.90;;;;;;4976287;28;20351;-47
2023/09/09 06:34:21;;;;;;;13.07;9.15;;;18.40;99.90;;;;;;4976015;28;20113;-49
2023/09/09 06:36:46;;;;;;;9.93;8.20;;;18.50;99.90;;;;;;4976060;28;20030;-46
2023/09/09 06:39:12;;;;;;;11.35;8.90;;;18.60;99.90;;;;;;4976365;28;20307;-50
2023/09/09 06:41:37;;;;;;;12.38;8.65;;;18.70;99.90;;;;;;4975813;28;20065;-50
2023/09/09 06:44:03;;;;;;;12.88;8.68;;;18.90;99.90;;;;;;4975787;28;20035;-47
2023/09/09 06:46:29;;;;;;;11.52;8.25;;;19.20;99.90;;;;;;4975971;28;20043;-46
2023/09/09 06:48:54;;;;;;;12.48;8.15;;;19.30;99.90;;;;;;4975989;28;20042;-50
2023/09/09 06:51:20;;;;;;;10.15;7.70;;;19.60;99.90;;;;;;4975844;28;20031;-47
2023/09/09 06:53:45;;;;;;;13.88;8.02;;;19.80;99.90;;;;;;4974109;28;20515;-47
2023/09/09 06:56:11;;;;;;;12.02;7.75;;;20.20;99.90;;;;;;4975654;28;20031;-47
2023/09/09 06:58:36;;;;;;;13.30;6.78;;;20.90;99.90;;;;;;4975627;28;20055;-47
2023/09/09 07:01:02;;;;;;;9.32;7.22;;;21.80;99.90;;;;;;4975759;28;20035;-50
2023/09/09 07:03:28;;;;;;;14.45;6.75;;;22.60;99.90;;;;;;4974408;28;20035;-49
2023/09/09 07:05:54;;;;;;;10.65;6.47;;;23.70;99.90;;;;;;4974132;28;20163;-49
2023/09/09 07:08:19;;;;;;;7.28;6.57;;;24.60;99.90;;;;;;4975614;28;20030;-47
2023/09/09 07:10:52;;;;;;;11.05;6.93;;;25.20;99.90;;;;;;4975672;28;20031;-47
2023/09/09 07:13:20;;;;;;;11.57;7.63;;;25.70;99.90;;;;;;4975483;28;20038;-47
2023/09/09 07:15:46;;;;;;;7.70;6.40;;;26.40;99.90;;;;;;4975446;28;20406;-52
2023/09/09 07:18:11;;;;;;;13.63;6.38;;;26.70;99.90;;;;;;4975510;28;20030;-48
2023/09/09 07:20:38;;;;;;;10.32;6.63;;;27.30;99.90;;;;;;4975310;28;20031;-53
2023/09/09 07:23:04;;;;;;;9.48;6.75;;;27.90;99.20;;;;;;4975110;28;20105;-49
2023/09/09 07:25:30;;;;;;;7.63;6.13;;;28.20;98.90;;;;;;4975244;28;20115;-49
2023/09/09 07:27:55;;;;;;;7.35;5.88;;;28.60;98.20;;;;;;4975483;28;20103;-51
2023/09/09 07:30:21;;;;;;;6.22;5.63;;;29.10;97.30;;;;;;4975440;28;20051;-51
2023/09/09 07:32:46;;;;;;;11.77;5.95;;;29.80;96.40;;;;;;4975534;28;20062;-52
2023/09/09 07:35:12;;;;;;;5.45;4.95;;;30.10;95.80;;;;;;4975269;28;20035;-54
2023/09/09 07:37:37;;;;;;;6.38;5.32;;;30.80;94.80;;;;;;4970771;28;20106;-56
2023/09/09 07:40:04;;;;;;;8.20;6.30;;;30.90;94.00;;;;;;4973886;28;20504;-58
2023/09/09 07:42:29;;;;;;;9.25;5.50;;;31.20;93.80;;;;;;4975275;28;20022;-55
2023/09/09 07:44:55;;;;;;;6.40;5.13;;;30.90;93.30;;;;;;4973284;28;20030;-56
2023/09/09 07:47:21;;;;;;;13.80;6.03;;;30.70;94.00;;;;;;4972135;28;20441;-57
2023/09/09 07:49:46;;;;;;;6.90;5.35;;;31.00;93.70;;;;;;4955368;28;20090;-50
2023/09/09 07:52:12;;;;;;;8.50;5.40;;;31.00;93.40;;;;;;4958790;28;20027;-59
2023/09/09 07:54:37;;;;;;;6.68;5.82;;;31.40;92.80;;;;;;4974833;28;20027;-58
2023/09/09 07:57:03;;;;;;;12.00;5.60;;;31.50;92.80;;;;;;4972052;28;20038;-55
2023/09/09 07:59:29;;;;;;;5.53;4.97;;;31.80;92.50;;;;;;4956121;28;20034;-55
2023/09/09 08:01:56;;;;;;;5.95;5.28;;;32.00;92.10;;;;;;4955747;28;20498;-56
2023/09/09 08:04:21;;;;;;;8.43;5.22;;;32.20;91.80;;;;;;4954305;28;20166;-57
2023/09/09 08:06:47;;;;;;;6.82;5.43;;;32.40;91.90;;;;;;4955945;29;20105;-53
2023/09/09 08:09:13;;;;;;;12.07;6.00;;;32.60;91.50;;;;;;4955789;28;20031;-54
2023/09/09 08:11:38;;;;;;;8.38;6.30;;;33.10;91.10;;;;;;4955844;28;20110;-54
2023/09/09 08:14:04;;;;;;;7.43;5.70;;;33.30;90.80;;;;;;4955236;29;20118;-56
2023/09/09 08:16:30;;;;;;;8.07;5.45;;;33.30;90.20;;;;;;4955593;28;20047;-56
2023/09/09 08:18:58;;;;;;;9.30;6.60;;;33.40;90.50;;;;;;4955251;29;20121;-53
2023/09/09 08:21:23;;;;;;;7.75;6.43;;;33.30;90.50;;;;;;4955157;28;20074;-50
2023/09/09 08:23:49;;;;;;;7.15;6.45;;;33.10;90.00;;;;;;4954944;29;20114;-53
2023/09/09 08:26:14;;;;;;;7.70;6.38;;;32.60;90.20;;;;;;4955252;29;20063;-55
2023/09/09 08:28:40;;;;;;;10.02;7.32;;;32.10;90.90;;;;;;4955268;29;20523;-54
2023/09/09 08:31:06;;;;;;;9.00;6.38;;;31.70;91.20;;;;;;4954058;28;20023;-56
2023/09/09 08:33:31;;;;;;;7.25;6.18;;;31.30;91.50;;;;;;4954520;28;20491;-53
2023/09/09 08:35:58;;;;;;;10.30;6.55;;;31.20;91.70;;;;;;4953190;29;20087;-52
2023/09/09 08:38:23;;;;;;;9.32;7.43;;;30.70;92.10;;;;;;4954918;28;20459;-55
2023/09/09 08:41:16;;;;;;;11.35;7.97;;;31.10;92.30;;;;;;4954869;29;20058;-53
2023/09/09 08:43:54;;;;;;;9.20;7.07;;;31.30;92.00;;;;;;4954119;28;20102;-54
2023/09/09 08:46:22;;;;;;;7.95;6.78;;;31.90;91.50;;;;;;4954798;29;20035;-54
2023/09/09 08:48:52;;;;;;;10.23;7.18;;;31.90;91.30;;;;;;4954838;28;20058;-51
2023/09/09 08:51:22;;;;;;;7.47;6.78;;;32.10;91.20;;;;;;4954738;28;20027;-55
2023/09/09 08:53:50;;;;;;;6.85;6.05;;;32.20;91.20;;;;;;4954130;28;20549;-53
2023/09/09 08:56:17;;;;;;;8.65;6.95;;;32.50;90.60;;;;;;4954349;28;20106;-53
2023/09/09 08:58:43;;;;;;;10.70;6.95;;;32.80;90.40;;;;;;4954385;29;20086;-52
2023/09/09 09:01:10;;;;;;;9.13;5.93;;;33.20;90.10;;;;;;4954170;28;20125;-53
2023/09/09 09:03:36;;;;;;;9.02;6.20;;;33.60;90.00;;;;;;4953906;28;20043;-60
2023/09/09 09:06:03;;;;;;;9.20;6.15;;;34.20;89.50;;;;;;4964456;28;20050;-61
2023/09/09 09:08:30;;;;;;;11.73;7.07;;;34.60;87.30;;;;;;4953202;28;20078;-58
2023/09/09 09:10:59;;;;;;;9.55;6.55;;;34.50;87.90;;;;;;4954371;29;20106;-55
2023/09/09 09:13:25;;;;;;;6.53;5.63;;;34.80;86.60;;;;;;4952990;28;20102;-55
2023/09/09 09:15:50;;;;;;;6.97;5.68;;;34.80;86.60;;;;;;4954180;28;20019;-52
2023/09/09 09:18:16;;;;;;;7.60;5.68;;;34.80;87.30;;;;;;4954989;28;20055;-52
2023/09/09 09:20:42;;;;;;;7.57;6.88;;;34.60;86.60;;;;;;4953865;28;20027;-51
2023/09/09 09:23:12;;;;;;;6.93;6.07;;;34.30;86.70;;;;;;4954133;28;20023;-52
2023/09/09 09:25:45;;;;;;;10.02;7.43;;;33.80;87.40;;;;;;4952217;29;20126;-54
2023/09/09 09:28:15;;;;;;;7.90;7.05;;;32.60;89.10;;;;;;4956435;28;20026;-66
2023/09/09 09:30:41;;;;;;;7.88;6.90;;;32.20;90.50;;;;;;4971928;28;20560;-55
2023/09/09 09:33:07;;;;;;;11.35;7.82;;;31.40;91.30;;;;;;4972731;28;20105;-55
2023/09/09 09:35:34;;;;;;;13.98;8.23;;;31.40;91.50;;;;;;4972676;28;20074;-52
2023/09/09 09:38:00;;;;;;;9.77;6.90;;;31.30;91.20;;;;;;4973244;28;20037;-54
2023/09/09 09:40:27;;;;;;;13.55;7.28;;;31.20;92.00;;;;;;4972686;28;20030;-55
2023/09/09 09:42:53;;;;;;;11.95;7.25;;;31.30;92.20;;;;;;4972131;28;20027;-55
2023/09/09 09:45:27;;;;;;;9.45;6.80;;;31.20;92.20;;;;;;4971108;28;20097;-55
2023/09/09 09:47:53;;;;;;;10.80;7.45;;;31.30;92.10;;;;;;4971643;28;20031;-52
2023/09/09 09:50:30;;;;;;;10.27;7.75;;;31.30;91.90;;;;;;4971708;28;20034;-53
2023/09/09 09:53:04;;;;;;;10.02;6.50;;;31.10;92.00;;;;;;4972839;28;20483;-54
2023/09/09 09:55:32;;;;;;;7.13;6.20;;;30.90;92.50;;;;;;4971309;28;20050;-55
2023/09/09 09:57:59;;;;;;;10.98;7.10;;;30.80;92.70;;;;;;4972857;28;20050;-53
2023/09/09 10:00:26;;;;;;;14.32;7.90;;;31.00;92.90;;;;;;4967561;28;20019;-55
2023/09/09 10:02:57;;;;;;;22.42;17.65;;;31.20;93.20;;;;;;4961454;28;20023;-49
2023/09/09 10:05:25;;;;;;;12.55;8.38;;;31.20;92.20;;;;;;4951833;29;20043;-53
2023/09/09 10:07:53;;;;;;;12.05;6.63;;;31.10;92.80;;;;;;4971783;28;20037;-53
2023/09/09 10:10:22;;;;;;;8.63;6.65;;;31.10;92.70;;;;;;4972755;28;20106;-49
2023/09/09 10:13:01;;;;;;;12.25;8.05;;;31.10;93.40;;;;;;4972376;28;20023;-51
2023/09/09 10:15:30;;;;;;;8.65;6.82;;;30.80;93.00;;;;;;4963701;28;20082;-50
2023/09/09 10:17:56;;;;;;;11.73;6.32;;;30.60;93.20;;;;;;4962040;28;20034;-47
2023/09/09 10:20:24;;;;;;;10.07;7.32;;;30.40;93.90;;;;;;4972640;28;20058;-49
2023/09/09 10:22:53;;;;;;;8.70;6.30;;;30.30;94.60;;;;;;4956936;28;20043;-48
2023/09/09 10:25:19;;;;;;;8.77;6.13;;;30.20;94.60;;;;;;4951673;29;20035;-51
2023/09/09 10:27:46;;;;;;;8.57;6.60;;;30.00;94.90;;;;;;4961458;28;20031;-50
2023/09/09 10:30:12;;;;;;;9.15;6.63;;;29.90;94.90;;;;;;4951847;29;20614;-53
2023/09/09 10:32:40;;;;;;;9.20;6.85;;;29.70;95.10;;;;;;4953124;28;20027;-53
2023/09/09 10:35:06;;;;;;;9.68;7.88;;;29.40;95.50;;;;;;4958644;28;20023;-50
2023/09/09 10:37:37;;;;;;;9.05;6.60;;;29.30;95.80;;;;;;4969869;28;20541;-52
2023/09/09 10:40:04;;;;;;;10.98;7.32;;;29.20;96.20;;;;;;4969259;28;20030;-53
2023/09/09 10:42:31;;;;;;;13.50;6.32;;;29.00;96.30;;;;;;4952922;28;20380;-51
2023/09/09 10:45:22;;;;;;;7.88;7.07;;;28.90;97.00;;;;;;4952451;28;20047;-47
2023/09/09 10:47:54;;;;;;;9.35;6.70;;;28.70;97.10;;;;;;4953163;28;20027;-52
2023/09/09 10:50:20;;;;;;;8.60;6.53;;;28.60;97.30;;;;;;4953306;28;20038;-48
2023/09/09 10:52:45;;;;;;;10.52;6.50;;;28.50;97.50;;;;;;4958709;28;20027;-48
2023/09/09 10:55:13;;;;;;;6.85;6.15;;;28.50;98.00;;;;;;4971932;28;20031;-46
2023/09/09 10:57:38;;;;;;;8.68;6.43;;;28.50;98.10;;;;;;4972461;28;20023;-53
2023/09/09 11:00:05;;;;;;;8.63;6.13;;;28.50;99.10;;;;;;4972365;28;20045;-44
2023/09/09 11:02:42;;;;;;;6.50;5.60;;;28.60;99.00;;;;;;4971841;28;20019;-45
2023/09/09 11:05:12;;;;;;;7.85;6.97;;;28.60;99.90;;;;;;4971078;28;20039;-47
2023/09/09 11:07:39;;;;;;;11.15;7.18;;;28.50;98.10;;;;;;4974648;28;20499;-48
2023/09/09 11:10:07;;;;;;;10.48;6.00;;;28.40;99.10;;;;;;4975060;28;20486;-51
2023/09/09 11:12:32;;;;;;;6.60;6.00;;;28.30;99.70;;;;;;4975980;28;20022;-46
2023/09/09 11:15:09;;;;;;;10.75;6.88;;;28.20;99.90;;;;;;4974980;28;20513;-47
2023/09/09 11:17:42;;;;;;;20.95;16.35;;;28.00;99.80;;;;;;4974385;28;20023;-48
2023/09/09 11:20:13;;;;;;;34.67;27.15;;;27.90;99.70;;;;;;4963602;28;20082;-51
2023/09/09 11:22:40;;;;;;;22.02;16.55;;;27.60;99.80;;;;;;4956519;28;20467;-50
2023/09/09 11:25:06;;;;;;;7.22;5.82;;;27.50;99.90;;;;;;4955826;29;20035;-50
2023/09/09 11:27:33;;;;;;;6.40;5.40;;;27.40;99.90;;;;;;4955845;28;20086;-50
2023/09/09 11:29:58;;;;;;;6.38;5.25;;;27.30;99.20;;;;;;4970664;28;20062;-48
2023/09/09 11:32:29;;;;;;;6.60;5.63;;;27.20;99.00;;;;;;4970711;28;20459;-47
2023/09/09 11:34:56;;;;;;;7.05;5.72;;;27.10;99.20;;;;;;4956278;28;20051;-45
2023/09/09 11:37:26;;;;;;;7.40;4.95;;;27.10;99.40;;;;;;4975115;28;20521;-54
2023/09/09 11:39:52;;;;;;;6.72;5.07;;;27.00;98.50;;;;;;4969104;28;20503;-45
2023/09/09 11:42:18;;;;;;;6.53;5.40;;;26.90;99.60;;;;;;4974685;28;20034;-49
2023/09/09 11:44:46;;;;;;;5.93;5.25;;;26.80;99.90;;;;;;4970333;28;20051;-48
2023/09/09 11:47:14;;;;;;;9.30;5.00;;;26.70;99.90;;;;;;4993370;23;20043;-51
2023/09/09 11:49:41;;;;;;;6.60;5.57;;;26.80;99.90;;;;;;4961543;28;20033;-49
2023/09/09 11:52:07;;;;;;;6.47;5.40;;;26.70;99.90;;;;;;4958518;28;20125;-52
2023/09/09 11:54:33;;;;;;;8.20;4.80;;;26.70;99.90;;;;;;4974147;28;20506;-49
2023/09/09 11:57:09;;;;;;;6.32;5.70;;;26.80;99.90;;;;;;4990525;28;20088;-49
2023/09/09 11:59:49;;;;;;;6.28;5.32;;;26.70;99.70;;;;;;4994365;28;20073;-51
2023/09/09 12:02:22;;;;;;;5.20;4.80;;;26.70;99.90;;;;;;4989851;28;20046;-50
2023/09/09 12:05:02;;;;;;;8.77;6.07;;;26.70;99.90;;;;;;4990411;28;20374;-48
2023/09/09 12:07:33;;;;;;;6.85;5.10;;;26.80;99.90;;;;;;4988417;28;20022;-52
2023/09/09 12:09:59;;;;;;;12.75;10.40;;;26.80;99.90;;;;;;4994049;28;20405;-50
2023/09/09 12:12:26;;;;;;;6.78;5.35;;;26.80;99.90;;;;;;4992833;28;20433;-50
2023/09/09 12:14:53;;;;;;;10.13;5.50;;;26.80;99.90;;;;;;4993570;28;20117;-52
2023/09/09 12:17:18;;;;;;;25.40;19.48;;;26.80;99.90;;;;;;4993068;28;20498;-48
2023/09/09 12:20:01;;;;;;;8.82;6.82;;;26.80;99.90;;;;;;4993982;28;20040;-51
2023/09/09 12:22:41;;;;;;;6.88;5.65;;;26.80;99.90;;;;;;4993288;28;20022;-51
2023/09/09 12:25:36;;;;;;;10.50;5.35;;;26.80;99.90;;;;;;4992669;28;20030;-49
2023/09/09 12:28:02;;;;;;;5.70;5.05;;;26.90;99.50;;;;;;4983313;28;20379;-48
2023/09/09 12:30:38;;;;;;;7.40;5.13;;;27.00;99.00;;;;;;4993994;28;20038;-51
2023/09/09 12:33:09;;;;;;;6.88;4.75;;;27.00;98.80;;;;;;4993218;28;20026;-52
2023/09/09 12:35:36;;;;;;;6.25;4.72;;;27.00;98.20;;;;;;4988835;28;20030;-49
2023/09/09 12:38:02;;;;;;;7.93;4.97;;;27.00;99.00;;;;;;4992977;28;20100;-48